sensor_id;sensor_type;location;lat;lon;timestamp;pressure;altitude;pressure_sealevel;temperature;humidity
63700;BME280;49845;47.130;142.766;2022-10-16T00:00:45;101050.16;;;12.27;89.34
63700;BME280;49845;47.130;142.766;2022-10-16T00:03:24;101043.16;;;12.29;89.04
63700;BME280;49845;47.130;142.766;2022-10-16T00:06:02;101041.41;;;12.31;88.80
63700;BME280;49845;47.130;142.766;2022-10-16T00:08:54;101029.16;;;12.33;88.61
63700;BME280;49845;47.130;142.766;2022-10-16T00:11:28;101037.88;;;12.32;88.88
63700;BME280;49845;47.130;142.766;2022-10-16T00:14:18;101032.59;;;12.35;89.53
63700;BME280;49845;47.130;142.766;2022-10-16T00:17:08;101034.53;;;12.21;88.89
63700;BME280;49845;47.130;142.766;2022-10-16T00:19:59;101021.59;;;12.04;89.49
63700;BME280;49845;47.130;142.766;2022-10-16T00:22:40;101009.44;;;11.98;90.41
63700;BME280;49845;47.130;142.766;2022-10-16T00:25:26;101005.16;;;11.91;90.66
63700;BME280;49845;47.130;142.766;2022-10-16T00:28:05;100996.41;;;11.92;91.19
63700;BME280;49845;47.130;142.766;2022-10-16T00:30:43;100993.69;;;12.00;91.71
63700;BME280;49845;47.130;142.766;2022-10-16T00:33:29;100980.63;;;11.98;91.96
63700;BME280;49845;47.130;142.766;2022-10-16T00:36:23;100985.75;;;12.11;91.99
63700;BME280;49845;47.130;142.766;2022-10-16T00:39:05;100978.88;;;11.97;91.75
63700;BME280;49845;47.130;142.766;2022-10-16T00:41:57;100987.63;;;11.96;92.06
63700;BME280;49845;47.130;142.766;2022-10-16T00:44:51;100983.38;;;11.81;91.86
63700;BME280;49845;47.130;142.766;2022-10-16T00:47:34;100973.84;;;11.76;92.23
63700;BME280;49845;47.130;142.766;2022-10-16T00:50:26;100978.31;;;11.64;92.43
63700;BME280;49845;47.130;142.766;2022-10-16T00:53:05;100977.41;;;11.65;93.36
63700;BME280;49845;47.130;142.766;2022-10-16T00:55:58;100981.81;;;11.60;93.45
63700;BME280;49845;47.130;142.766;2022-10-16T00:58:49;100942.03;;;11.25;93.54
63700;BME280;49845;47.130;142.766;2022-10-16T01:01:38;100968.97;;;11.36;93.99
63700;BME280;49845;47.130;142.766;2022-10-16T01:04:17;100970.78;;;11.25;94.61
63700;BME280;49845;47.130;142.766;2022-10-16T01:07:04;100972.56;;;11.19;95.45
63700;BME280;49845;47.130;142.766;2022-10-16T01:10:16;100961.19;;;11.27;96.23
63700;BME280;49845;47.130;142.766;2022-10-16T01:13:06;100946.34;;;11.29;96.42
63700;BME280;49845;47.130;142.766;2022-10-16T01:15:59;100942.81;;;11.36;96.94
63700;BME280;49845;47.130;142.766;2022-10-16T01:19:02;100941.84;;;11.44;96.32
63700;BME280;49845;47.130;142.766;2022-10-16T01:21:53;100899.25;;;11.26;96.19
63700;BME280;49845;47.130;142.766;2022-10-16T01:24:49;100937.44;;;11.51;96.39
63700;BME280;49845;47.130;142.766;2022-10-16T01:27:45;100939.22;;;11.44;95.92
63700;BME280;49845;47.130;142.766;2022-10-16T01:30:21;100919.31;;;11.28;96.00
63700;BME280;49845;47.130;142.766;2022-10-16T01:33:14;100937.56;;;11.33;96.02
63700;BME280;49845;47.130;142.766;2022-10-16T01:35:56;100932.38;;;11.30;96.34
63700;BME280;49845;47.130;142.766;2022-10-16T01:38:38;100937.69;;;11.20;96.38
63700;BME280;49845;47.130;142.766;2022-10-16T01:41:27;100927.31;;;11.08;96.94
63700;BME280;49845;47.130;142.766;2022-10-16T01:44:13;100931.69;;;11.09;97.33
63700;BME280;49845;47.130;142.766;2022-10-16T01:46:56;100900.47;;;10.83;97.95
63700;BME280;49845;47.130;142.766;2022-10-16T01:49:45;100941.31;;;11.04;98.47
63700;BME280;49845;47.130;142.766;2022-10-16T01:52:33;100941.31;;;11.04;98.81
63700;BME280;49845;47.130;142.766;2022-10-16T01:55:28;100936.06;;;11.07;99.02
63700;BME280;49845;47.130;142.766;2022-10-16T01:58:14;100932.56;;;11.07;99.08
63700;BME280;49845;47.130;142.766;2022-10-16T02:00:58;100933.50;;;10.99;99.30
63700;BME280;49845;47.130;142.766;2022-10-16T02:03:45;100907.44;;;10.86;99.62
63700;BME280;49845;47.130;142.766;2022-10-16T02:06:32;100914.38;;;10.90;99.74
63700;BME280;49845;47.130;142.766;2022-10-16T02:09:07;100857.09;;;10.61;99.73
63700;BME280;49845;47.130;142.766;2022-10-16T02:11:48;100901.28;;;10.93;100.00
63700;BME280;49845;47.130;142.766;2022-10-16T02:14:44;100897.81;;;10.94;100.00
63700;BME280;49845;47.130;142.766;2022-10-16T02:17:37;100885.53;;;11.02;100.00
63700;BME280;49845;47.130;142.766;2022-10-16T02:20:16;100882.91;;;11.04;100.00
63700;BME280;49845;47.130;142.766;2022-10-16T02:23:06;100884.63;;;11.03;99.87
63700;BME280;49845;47.130;142.766;2022-10-16T02:25:58;100872.53;;;10.93;99.71
63700;BME280;49845;47.130;142.766;2022-10-16T02:28:40;100878.59;;;10.98;99.29
63700;BME280;49845;47.130;142.766;2022-10-16T02:31:22;100883.81;;;10.98;99.37
63700;BME280;49845;47.130;142.766;2022-10-16T02:34:16;100886.41;;;11.02;98.83
63700;BME280;49845;47.130;142.766;2022-10-16T02:36:58;100859.44;;;10.96;98.66
63700;BME280;49845;47.130;142.766;2022-10-16T02:39:48;100873.38;;;10.95;98.63
63700;BME280;49845;47.130;142.766;2022-10-16T02:42:36;100857.69;;;10.95;99.05
63700;BME280;49845;47.130;142.766;2022-10-16T02:45:13;100848.00;;;11.08;98.81
63700;BME280;49845;47.130;142.766;2022-10-16T02:47:59;100852.38;;;11.07;98.99
63700;BME280;49845;47.130;142.766;2022-10-16T02:51:12;100789.72;;;10.95;98.93
63700;BME280;49845;47.130;142.766;2022-10-16T02:53:57;100812.19;;;11.13;98.06
63700;BME280;49845;47.130;142.766;2022-10-16T02:56:43;100808.69;;;11.15;98.32
63700;BME280;49845;47.130;142.766;2022-10-16T02:59:23;100815.63;;;11.19;98.17
63700;BME280;49845;47.130;142.766;2022-10-16T03:02:16;100813.75;;;11.34;98.18
63700;BME280;49845;47.130;142.766;2022-10-16T03:04:55;100809.19;;;11.50;98.24
63700;BME280;49845;47.130;142.766;2022-10-16T03:07:37;100796.81;;;11.64;97.38
63700;BME280;49845;47.130;142.766;2022-10-16T03:10:38;100784.53;;;11.71;96.73
63700;BME280;49845;47.130;142.766;2022-10-16T03:13:20;100786.09;;;11.84;96.57
63700;BME280;49845;47.130;142.766;2022-10-16T03:16:09;100776.34;;;11.98;95.49
63700;BME280;49845;47.130;142.766;2022-10-16T03:19:04;100787.53;;;12.08;94.81
63700;BME280;49845;47.130;142.766;2022-10-16T03:21:41;100775.16;;;12.19;93.91
63700;BME280;49845;47.130;142.766;2022-10-16T03:24:26;100770.81;;;12.18;93.22
63700;BME280;49845;47.130;142.766;2022-10-16T03:27:14;100760.34;;;12.17;92.39
63700;BME280;49845;47.130;142.766;2022-10-16T03:30:11;100763.34;;;11.91;92.35
63700;BME280;49845;47.130;142.766;2022-10-16T03:33:06;100770.38;;;11.87;93.31
63700;BME280;49845;47.130;142.766;2022-10-16T03:35:53;100766.22;;;11.71;93.52
63700;BME280;49845;47.130;142.766;2022-10-16T03:39:01;100761.13;;;11.58;94.15
63700;BME280;49845;47.130;142.766;2022-10-16T03:41:51;100757.88;;;11.38;94.97
63700;BME280;49845;47.130;142.766;2022-10-16T03:44:26;100751.06;;;11.25;96.01
63700;BME280;49845;47.130;142.766;2022-10-16T03:47:04;100749.44;;;11.14;96.66
63700;BME280;49845;47.130;142.766;2022-10-16T03:49:58;100745.97;;;11.12;97.70
63700;BME280;49845;47.130;142.766;2022-10-16T03:52:42;100740.72;;;11.12;98.13
63700;BME280;49845;47.130;142.766;2022-10-16T03:55:32;100739.06;;;11.07;98.63
63700;BME280;49845;47.130;142.766;2022-10-16T04:01:37;100714.84;;;10.88;99.40
63700;BME280;49845;47.130;142.766;2022-10-16T04:04:16;100732.16;;;10.98;99.66
63700;BME280;49845;47.130;142.766;2022-10-16T04:06:52;100735.66;;;10.97;100.00
63700;BME280;49845;47.130;142.766;2022-10-16T04:09:32;100725.25;;;10.94;100.00
63700;BME280;49845;47.130;142.766;2022-10-16T04:12:10;100727.91;;;10.91;100.00
63700;BME280;49845;47.130;142.766;2022-10-16T04:14:56;100724.44;;;10.87;100.00
63700;BME280;49845;47.130;142.766;2022-10-16T04:18:00;100709.66;;;10.85;100.00
63700;BME280;49845;47.130;142.766;2022-10-16T04:21:02;100719.97;;;10.97;100.00
63700;BME280;49845;47.130;142.766;2022-10-16T04:23:50;100698.16;;;10.98;100.00
63700;BME280;49845;47.130;142.766;2022-10-16T04:26:44;100700.75;;;11.01;100.00
63700;BME280;49845;47.130;142.766;2022-10-16T04:29:40;100706.78;;;11.08;100.00
63700;BME280;49845;47.130;142.766;2022-10-16T04:32:17;100712.91;;;11.05;100.00
63700;BME280;49845;47.130;142.766;2022-10-16T04:35:11;100712.03;;;11.03;100.00
63700;BME280;49845;47.130;142.766;2022-10-16T04:37:57;100712.94;;;11.02;100.00
63700;BME280;49845;47.130;142.766;2022-10-16T04:40:45;100709.44;;;11.03;100.00
63700;BME280;49845;47.130;142.766;2022-10-16T04:43:36;100707.81;;;10.93;100.00
63700;BME280;49845;47.130;142.766;2022-10-16T04:46:17;100710.50;;;10.85;100.00
63700;BME280;49845;47.130;142.766;2022-10-16T04:48:59;100717.41;;;10.92;100.00
63700;BME280;49845;47.130;142.766;2022-10-16T04:51:41;100635.16;;;10.44;100.00
63700;BME280;49845;47.130;142.766;2022-10-16T04:54:27;100713.06;;;10.90;100.00
63700;BME280;49845;47.130;142.766;2022-10-16T04:57:22;100702.69;;;10.84;100.00
63700;BME280;49845;47.130;142.766;2022-10-16T05:00:18;100629.09;;;10.37;100.00
63700;BME280;49845;47.130;142.766;2022-10-16T05:03:13;100695.72;;;10.83;100.00
63700;BME280;49845;47.130;142.766;2022-10-16T05:06:06;100699.19;;;10.85;100.00
63700;BME280;49845;47.130;142.766;2022-10-16T05:09:02;100699.13;;;10.91;100.00
63700;BME280;49845;47.130;142.766;2022-10-16T05:11:40;100686.88;;;10.93;100.00
63700;BME280;49845;47.130;142.766;2022-10-16T05:14:25;100694.72;;;10.96;100.00
63700;BME280;49845;47.130;142.766;2022-10-16T05:17:03;100687.69;;;10.98;100.00
63700;BME280;49845;47.130;142.766;2022-10-16T05:19:45;100674.63;;;11.01;100.00
63700;BME280;49845;47.130;142.766;2022-10-16T05:22:36;100674.56;;;11.04;100.00
63700;BME280;49845;47.130;142.766;2022-10-16T05:25:33;100672.81;;;11.03;100.00
63700;BME280;49845;47.130;142.766;2022-10-16T05:28:10;100672.81;;;11.03;100.00
63700;BME280;49845;47.130;142.766;2022-10-16T05:30:48;100664.13;;;11.04;100.00
63700;BME280;49845;47.130;142.766;2022-10-16T05:33:48;100664.97;;;11.06;100.00
63700;BME280;49845;47.130;142.766;2022-10-16T05:36:38;100669.31;;;11.07;100.00
63700;BME280;49845;47.130;142.766;2022-10-16T05:39:16;100653.69;;;11.01;100.00
63700;BME280;49845;47.130;142.766;2022-10-16T05:42:09;100667.53;;;11.09;100.00
63700;BME280;49845;47.130;142.766;2022-10-16T05:44:49;100662.31;;;11.09;100.00
63700;BME280;49845;47.130;142.766;2022-10-16T05:47:46;100665.78;;;11.11;100.00
63700;BME280;49845;47.130;142.766;2022-10-16T05:50:39;100669.25;;;11.13;100.00
63700;BME280;49845;47.130;142.766;2022-10-16T05:53:38;100667.53;;;11.09;100.00
63700;BME280;49845;47.130;142.766;2022-10-16T05:56:19;100664.88;;;11.14;100.00
63700;BME280;49845;47.130;142.766;2022-10-16T05:59:11;100654.47;;;11.11;100.00
63700;BME280;49845;47.130;142.766;2022-10-16T06:01:51;100664.00;;;11.13;100.00
63700;BME280;49845;47.130;142.766;2022-10-16T06:04:46;100655.28;;;11.14;100.00
63700;BME280;49845;47.130;142.766;2022-10-16T06:07:37;100653.50;;;11.16;100.00
63700;BME280;49845;47.130;142.766;2022-10-16T06:10:34;100650.88;;;11.16;100.00
63700;BME280;49845;47.130;142.766;2022-10-16T06:13:13;100632.63;;;11.13;100.00
63700;BME280;49845;47.130;142.766;2022-10-16T06:15:57;100627.31;;;11.19;100.00
63700;BME280;49845;47.130;142.766;2022-10-16T06:18:47;100581.41;;;10.95;100.00
63700;BME280;49845;47.130;142.766;2022-10-16T06:21:41;100628.19;;;11.18;100.00
63700;BME280;49845;47.130;142.766;2022-10-16T06:24:28;100601.31;;;11.07;100.00
63700;BME280;49845;47.130;142.766;2022-10-16T06:27:17;100620.31;;;11.21;100.00
63700;BME280;49845;47.130;142.766;2022-10-16T06:30:00;100615.13;;;11.18;100.00
63700;BME280;49845;47.130;142.766;2022-10-16T06:32:48;100616.03;;;11.14;100.00
63700;BME280;49845;47.130;142.766;2022-10-16T06:35:44;100609.91;;;11.18;100.00
63700;BME280;49845;47.130;142.766;2022-10-16T06:38:36;100604.66;;;11.18;100.00
63700;BME280;49845;47.130;142.766;2022-10-16T06:41:26;100561.38;;;10.96;100.00
63700;BME280;49845;47.130;142.766;2022-10-16T06:47:12;100570.84;;;11.05;100.00
63700;BME280;49845;47.130;142.766;2022-10-16T06:49:56;100597.63;;;11.23;100.00
63700;BME280;49845;47.130;142.766;2022-10-16T06:52:45;100601.91;;;11.28;100.00
63700;BME280;49845;47.130;142.766;2022-10-16T06:55:23;100583.69;;;11.21;100.00
63700;BME280;49845;47.130;142.766;2022-10-16T06:58:06;100596.72;;;11.25;100.00
63700;BME280;49845;47.130;142.766;2022-10-16T07:00:59;100591.53;;;11.20;100.00
63700;BME280;49845;47.130;142.766;2022-10-16T07:03:36;100590.69;;;11.19;100.00
63700;BME280;49845;47.130;142.766;2022-10-16T07:06:47;100588.97;;;11.18;100.00
63700;BME280;49845;47.130;142.766;2022-10-16T07:09:39;100585.44;;;11.19;100.00
63700;BME280;49845;47.130;142.766;2022-10-16T07:12:26;100578.50;;;11.17;100.00
63700;BME280;49845;47.130;142.766;2022-10-16T07:15:38;100570.66;;;11.17;100.00
63700;BME280;49845;47.130;142.766;2022-10-16T07:18:16;100573.28;;;11.15;100.00
63700;BME280;49845;47.130;142.766;2022-10-16T07:21:19;100562.88;;;11.12;100.00
63700;BME280;49845;47.130;142.766;2022-10-16T07:24:17;100566.41;;;11.11;100.00
63700;BME280;49845;47.130;142.766;2022-10-16T07:27:17;100555.09;;;11.08;100.00
63700;BME280;49845;47.130;142.766;2022-10-16T07:30:00;100562.97;;;11.06;100.00
63700;BME280;49845;47.130;142.766;2022-10-16T07:32:41;100547.34;;;11.00;100.00
63700;BME280;49845;47.130;142.766;2022-10-16T07:35:28;100545.53;;;11.05;100.00
63700;BME280;49845;47.130;142.766;2022-10-16T07:38:06;100550.78;;;11.05;100.00
63700;BME280;49845;47.130;142.766;2022-10-16T07:40:46;100556.84;;;11.06;100.00
63700;BME280;49845;47.130;142.766;2022-10-16T07:43:30;100507.59;;;10.76;100.00
63700;BME280;49845;47.130;142.766;2022-10-16T07:46:08;100552.53;;;11.06;100.00
63700;BME280;49845;47.130;142.766;2022-10-16T07:48:54;100545.69;;;10.96;100.00
63700;BME280;49845;47.130;142.766;2022-10-16T07:51:33;100552.47;;;11.09;100.00
63700;BME280;49845;47.130;142.766;2022-10-16T07:54:11;100558.56;;;11.08;100.00
63700;BME280;49845;47.130;142.766;2022-10-16T07:56:57;100559.47;;;11.07;100.00
63700;BME280;49845;47.130;142.766;2022-10-16T07:59:43;100566.47;;;11.05;100.00
63700;BME280;49845;47.130;142.766;2022-10-16T08:02:32;100562.13;;;11.02;100.00
63700;BME280;49845;47.130;142.766;2022-10-16T08:05:17;100457.47;;;10.47;100.00
63700;BME280;49845;47.130;142.766;2022-10-16T08:08:03;100549.13;;;10.98;100.00
63700;BME280;49845;47.130;142.766;2022-10-16T08:10:48;100550.91;;;10.96;100.00
63700;BME280;49845;47.130;142.766;2022-10-16T08:13:47;100536.09;;;10.95;100.00
63700;BME280;49845;47.130;142.766;2022-10-16T08:16:31;100531.78;;;10.94;100.00
63700;BME280;49845;47.130;142.766;2022-10-16T08:19:08;100517.84;;;10.92;100.00
63700;BME280;49845;47.130;142.766;2022-10-16T08:21:47;100530.00;;;10.96;100.00
63700;BME280;49845;47.130;142.766;2022-10-16T08:24:32;100522.97;;;10.98;100.00
63700;BME280;49845;47.130;142.766;2022-10-16T08:27:19;100529.94;;;10.99;100.00
63700;BME280;49845;47.130;142.766;2022-10-16T08:30:00;100529.94;;;10.99;100.00
63700;BME280;49845;47.130;142.766;2022-10-16T08:32:35;100533.44;;;10.98;100.00
63700;BME280;49845;47.130;142.766;2022-10-16T08:35:22;100481.56;;;10.67;100.00
63700;BME280;49845;47.130;142.766;2022-10-16T08:38:17;100537.78;;;10.99;100.00
63700;BME280;49845;47.130;142.766;2022-10-16T08:41:29;100533.53;;;10.93;100.00
63700;BME280;49845;47.130;142.766;2022-10-16T08:44:58;100530.00;;;10.96;100.00
63700;BME280;49845;47.130;142.766;2022-10-16T08:47:49;100533.47;;;10.95;100.00
63700;BME280;49845;47.130;142.766;2022-10-16T08:50:42;100518.81;;;10.83;100.00
63700;BME280;49845;47.130;142.766;2022-10-16T08:53:33;100524.78;;;10.93;100.00
63700;BME280;49845;47.130;142.766;2022-10-16T08:56:18;100526.59;;;10.91;100.00
63700;BME280;49845;47.130;142.766;2022-10-16T08:59:13;100514.38;;;10.88;100.00
63700;BME280;49845;47.130;142.766;2022-10-16T09:02:00;100509.09;;;10.93;100.00
63700;BME280;49845;47.130;142.766;2022-10-16T09:05:02;100505.63;;;10.94;100.00
63700;BME280;49845;47.130;142.766;2022-10-16T09:10:52;100524.78;;;10.93;100.00
63700;BME280;49845;47.130;142.766;2022-10-16T09:13:51;100519.66;;;10.87;100.00
63700;BME280;49845;47.130;142.766;2022-10-16T09:16:56;100519.56;;;10.93;100.00
63700;BME280;49845;47.130;142.766;2022-10-16T09:19:44;100510.91;;;10.88;100.00
63700;BME280;49845;47.130;142.766;2022-10-16T09:22:28;100506.59;;;10.87;100.00
63700;BME280;49845;47.130;142.766;2022-10-16T09:25:14;100508.28;;;10.89;100.00
63700;BME280;49845;47.130;142.766;2022-10-16T09:27:59;100503.91;;;10.90;100.00
63700;BME280;49845;47.130;142.766;2022-10-16T09:30:50;100498.75;;;10.87;100.00
63700;BME280;49845;47.130;142.766;2022-10-16T09:33:34;100464.13;;;10.69;100.00
63700;BME280;49845;47.130;142.766;2022-10-16T09:36:30;100493.41;;;10.93;100.00
63700;BME280;49845;47.130;142.766;2022-10-16T09:39:26;100507.38;;;10.92;100.00
63700;BME280;49845;47.130;142.766;2022-10-16T09:42:04;100494.31;;;10.90;100.00
63700;BME280;49845;47.130;142.766;2022-10-16T09:44:46;100502.16;;;10.92;100.00
63700;BME280;49845;47.130;142.766;2022-10-16T09:47:39;100488.28;;;10.87;100.00
63700;BME280;49845;47.130;142.766;2022-10-16T09:50:26;100486.53;;;10.86;100.00
63700;BME280;49845;47.130;142.766;2022-10-16T09:53:14;100489.97;;;10.91;100.00
63700;BME280;49845;47.130;142.766;2022-10-16T09:56:11;100493.47;;;10.90;100.00
63700;BME280;49845;47.130;142.766;2022-10-16T09:59:08;100482.16;;;10.88;100.00
63700;BME280;49845;47.130;142.766;2022-10-16T10:02:02;100483.00;;;10.90;100.00
63700;BME280;49845;47.130;142.766;2022-10-16T10:04:52;100471.69;;;10.89;100.00
63700;BME280;49845;47.130;142.766;2022-10-16T10:07:43;100455.16;;;10.87;100.00
63700;BME280;49845;47.130;142.766;2022-10-16T10:10:44;100413.56;;;10.73;100.00
63700;BME280;49845;47.130;142.766;2022-10-16T10:13:32;100436.94;;;10.83;100.00
63700;BME280;49845;47.130;142.766;2022-10-16T10:16:12;100427.31;;;10.85;100.00
63700;BME280;49845;47.130;142.766;2022-10-16T10:19:03;100430.78;;;10.87;100.00
63700;BME280;49845;47.130;142.766;2022-10-16T10:21:50;100436.00;;;10.87;100.00
63700;BME280;49845;47.130;142.766;2022-10-16T10:24:39;100319.38;;;10.19;100.00
63700;BME280;49845;47.130;142.766;2022-10-16T10:27:41;100424.63;;;10.91;100.00
63700;BME280;49845;47.130;142.766;2022-10-16T10:30:23;100416.78;;;10.89;100.00
63700;BME280;49845;47.130;142.766;2022-10-16T10:33:17;100410.72;;;10.89;100.00
63700;BME280;49845;47.130;142.766;2022-10-16T10:36:17;100371.91;;;10.61;100.00
63700;BME280;49845;47.130;142.766;2022-10-16T10:39:12;100394.41;;;10.71;100.00
63700;BME280;49845;47.130;142.766;2022-10-16T10:42:36;100403.72;;;10.88;100.00
63700;BME280;49845;47.130;142.766;2022-10-16T10:45:26;100394.13;;;10.90;100.00
63700;BME280;49845;47.130;142.766;2022-10-16T10:48:42;100400.19;;;10.92;100.00
63700;BME280;49845;47.130;142.766;2022-10-16T10:52:10;100348.31;;;10.66;100.00
63700;BME280;49845;47.130;142.766;2022-10-16T10:54:54;100342.16;;;10.68;100.00
63700;BME280;49845;47.130;142.766;2022-10-16T10:58:06;100373.19;;;10.91;100.00
63700;BME280;49845;47.130;142.766;2022-10-16T11:01:07;100351.38;;;10.92;100.00
63700;BME280;49845;47.130;142.766;2022-10-16T11:04:11;100340.97;;;10.91;100.00
63700;BME280;49845;47.130;142.766;2022-10-16T11:07:17;100343.59;;;10.91;100.00
63700;BME280;49845;47.130;142.766;2022-10-16T11:10:09;100338.38;;;10.89;100.00
63700;BME280;49845;47.130;142.766;2022-10-16T11:12:49;100330.47;;;10.94;100.00
63700;BME280;49845;47.130;142.766;2022-10-16T11:15:45;100314.78;;;10.92;100.00
63700;BME280;49845;47.130;142.766;2022-10-16T11:18:37;100289.91;;;10.68;100.00
63700;BME280;49845;47.130;142.766;2022-10-16T11:21:30;100314.78;;;10.92;100.00
63700;BME280;49845;47.130;142.766;2022-10-16T11:24:20;100305.16;;;10.96;100.00
63700;BME280;49845;47.130;142.766;2022-10-16T11:27:14;100263.69;;;10.74;100.00
63700;BME280;49845;47.130;142.766;2022-10-16T11:29:57;100294.72;;;10.93;100.00
63700;BME280;49845;47.130;142.766;2022-10-16T11:32:49;100303.34;;;10.98;100.00
63700;BME280;49845;47.130;142.766;2022-10-16T11:35:42;100299.03;;;10.97;100.00
63700;BME280;49845;47.130;142.766;2022-10-16T11:38:32;100273.03;;;10.88;100.00
63700;BME280;49845;47.130;142.766;2022-10-16T11:41:29;100279.88;;;10.95;100.00
63700;BME280;49845;47.130;142.766;2022-10-16T11:44:26;100284.25;;;10.96;100.00
63700;BME280;49845;47.130;142.766;2022-10-16T11:47:19;100266.94;;;10.89;100.00
63700;BME280;49845;47.130;142.766;2022-10-16T11:50:34;100240.09;;;10.77;100.00
63700;BME280;49845;47.130;142.766;2022-10-16T11:53:44;100277.19;;;11.01;100.00
63700;BME280;49845;47.130;142.766;2022-10-16T11:56:33;100270.13;;;11.03;100.00
63700;BME280;49845;47.130;142.766;2022-10-16T11:59:28;100265.81;;;11.02;100.00
63700;BME280;49845;47.130;142.766;2022-10-16T12:02:38;100276.28;;;11.02;100.00
63700;BME280;49845;47.130;142.766;2022-10-16T12:05:28;100277.19;;;11.01;100.00
63700;BME280;49845;47.130;142.766;2022-10-16T12:08:13;100266.75;;;10.98;100.00
63700;BME280;49845;47.130;142.766;2022-10-16T12:10:51;100237.28;;;10.90;100.00
63700;BME280;49845;47.130;142.766;2022-10-16T12:13:33;100268.38;;;11.05;100.00
63700;BME280;49845;47.130;142.766;2022-10-16T12:16:19;100234.59;;;10.93;100.00
63700;BME280;49845;47.130;142.766;2022-10-16T12:19:12;100264.03;;;11.04;100.00
63700;BME280;49845;47.130;142.766;2022-10-16T12:21:57;100225.25;;;10.79;100.00
63700;BME280;49845;47.130;142.766;2022-10-16T12:24:42;100240.59;;;10.98;100.00
63700;BME280;49845;47.130;142.766;2022-10-16T12:27:33;100218.31;;;10.78;100.00
63700;BME280;49845;47.130;142.766;2022-10-16T12:30:23;100225.91;;;10.92;100.00
63700;BME280;49845;47.130;142.766;2022-10-16T12:33:05;100223.19;;;10.97;100.00
63700;BME280;49845;47.130;142.766;2022-10-16T12:35:49;100231.81;;;11.02;100.00
63700;BME280;49845;47.130;142.766;2022-10-16T12:38:52;100229.19;;;11.04;100.00
63700;BME280;49845;47.130;142.766;2022-10-16T12:42:06;100225.69;;;11.03;100.00
63700;BME280;49845;47.130;142.766;2022-10-16T12:44:58;100228.31;;;11.03;100.00
63700;BME280;49845;47.130;142.766;2022-10-16T12:47:48;100228.31;;;11.03;100.00
63700;BME280;49845;47.130;142.766;2022-10-16T12:50:38;100215.28;;;11.01;100.00
63700;BME280;49845;47.130;142.766;2022-10-16T12:53:38;100214.34;;;11.04;100.00
63700;BME280;49845;47.130;142.766;2022-10-16T12:56:22;100194.44;;;10.98;100.00
63700;BME280;49845;47.130;142.766;2022-10-16T12:59:19;100205.59;;;11.05;100.00
63700;BME280;49845;47.130;142.766;2022-10-16T13:05:59;100190.13;;;10.96;100.00
63700;BME280;49845;47.130;142.766;2022-10-16T13:12:07;100160.38;;;11.00;100.00
63700;BME280;49845;47.130;142.766;2022-10-16T13:15:03;100123.34;;;10.78;100.00
63700;BME280;49845;47.130;142.766;2022-10-16T13:17:58;100150.78;;;11.00;100.00
63700;BME280;49845;47.130;142.766;2022-10-16T13:20:55;100088.91;;;10.57;100.00
63700;BME280;49845;47.130;142.766;2022-10-16T13:23:48;100172.53;;;11.04;100.00
63700;BME280;49845;47.130;142.766;2022-10-16T13:26:46;100156.84;;;11.04;100.00
63700;BME280;49845;47.130;142.766;2022-10-16T13:29:37;100154.22;;;11.04;100.00
63700;BME280;49845;47.130;142.766;2022-10-16T13:32:16;100152.47;;;11.03;100.00
63700;BME280;49845;47.130;142.766;2022-10-16T13:35:03;100134.38;;;10.94;100.00
63700;BME280;49845;47.130;142.766;2022-10-16T13:37:48;100141.16;;;11.04;100.00
63700;BME280;49845;47.130;142.766;2022-10-16T13:40:36;100132.44;;;11.04;100.00
63700;BME280;49845;47.130;142.766;2022-10-16T13:43:27;100129.78;;;11.05;100.00
63700;BME280;49845;47.130;142.766;2022-10-16T13:46:17;100114.19;;;11.00;100.00
63700;BME280;49845;47.130;142.766;2022-10-16T13:49:01;100110.66;;;11.03;100.00
63700;BME280;49845;47.130;142.766;2022-10-16T13:51:41;100118.44;;;11.06;100.00
63700;BME280;49845;47.130;142.766;2022-10-16T13:59:22;100096.53;;;11.12;100.00
63700;BME280;49845;47.130;142.766;2022-10-16T14:02:22;100086.84;;;11.15;100.00
63700;BME280;49845;47.130;142.766;2022-10-16T14:05:10;100086.81;;;11.18;100.00
63700;BME280;49845;47.130;142.766;2022-10-16T14:08:02;100071.97;;;11.19;100.00
63700;BME280;49845;47.130;142.766;2022-10-16T14:10:50;100073.69;;;11.20;100.00
63700;BME280;49845;47.130;142.766;2022-10-16T14:13:44;100067.56;;;11.21;100.00
63700;BME280;49845;47.130;142.766;2022-10-16T14:16:32;99991.81;;;10.77;100.00
63700;BME280;49845;47.130;142.766;2022-10-16T14:19:13;100067.53;;;11.22;100.00
63700;BME280;49845;47.130;142.766;2022-10-16T14:22:00;100065.88;;;11.18;100.00
63700;BME280;49845;47.130;142.766;2022-10-16T14:24:36;100062.44;;;11.16;100.00
63700;BME280;49845;47.130;142.766;2022-10-16T14:30:26;100062.28;;;11.22;100.00
63700;BME280;49845;47.130;142.766;2022-10-16T14:33:31;100047.63;;;11.15;100.00
63700;BME280;49845;47.130;142.766;2022-10-16T14:36:20;100060.59;;;11.21;100.00
63700;BME280;49845;47.130;142.766;2022-10-16T14:39:04;100020.94;;;11.01;100.00